Terminal Aerodrome Forecast
Issued by NWS

Home | Current Version | Previous Version | Text Only | Print | Product List | Glossary On
Versions: 1 2 3 4 5 6 7 8 9 10 11 12 13 14
000
FTUS45 KBOI 241736
TAFJER
TAF
KJER 241736Z 2418/2518 25015G25KT P6SM BKN003 OVC007
     FM242200 23008KT P6SM SCT100
     FM251000 07008KT P6SM SCT250=

USA.gov is the U.S. government's official web portal to all federal, state and local government web resources and services.